Time;durP1;ratioP1;P1;durP2;ratioP2;P2;SDS_P1;SDS_P2;PMS_P1;PMS_P2;Temp;Humidity;BMP_temperature;BMP_pressure;BME280_temperature;BME280_humidity;BME280_pressure;Samples;Min_cycle;Max_cycle;Signal;HPM_P1;HPM_P2
2022/05/17 00:02:19;;;;;;;5.00;4.60;;;;;;;;;;5118534;28;20234;-60
2022/05/17 00:04:47;;;;;;;4.50;4.10;;;;;;;;;;5118854;28;20203;-60
2022/05/17 00:07:14;;;;;;;5.30;4.90;;;;;;;;;;5118215;28;20218;-60
2022/05/17 00:09:42;;;;;;;4.90;4.40;;;;;;;;;;5117182;28;20267;-60
2022/05/17 00:12:09;;;;;;;5.03;4.53;;;;;;;;;;5118595;28;20503;-60
2022/05/17 00:14:38;;;;;;;5.25;4.75;;;;;;;;;;5118517;28;20210;-60
2022/05/17 00:17:05;;;;;;;4.72;4.30;;;;;;;;;;5118613;28;20202;-60
2022/05/17 00:19:34;;;;;;;4.68;4.22;;;;;;;;;;5108938;28;20196;-60
2022/05/17 00:22:01;;;;;;;4.97;4.47;;;;;;;;;;5098216;28;20199;-60
2022/05/17 00:24:29;;;;;;;6.88;5.13;;;;;;;;;;5097706;28;20203;-60
2022/05/17 00:26:56;;;;;;;4.57;4.15;;;;;;;;;;5097754;28;20214;-60
2022/05/17 00:29:24;;;;;;;4.97;4.50;;;;;;;;;;5097001;28;20218;-60
2022/05/17 00:31:52;;;;;;;5.03;4.15;;;;;;;;;;5097390;28;20621;-60
2022/05/17 00:34:20;;;;;;;5.75;4.72;;;;;;;;;;5097486;28;20214;-60
2022/05/17 00:36:49;;;;;;;4.43;4.13;;;;;;;;;;5097180;28;20267;-60
2022/05/17 00:39:16;;;;;;;4.80;4.40;;;;;;;;;;5097708;28;20234;-60
2022/05/17 00:41:44;;;;;;;5.45;4.95;;;;;;;;;;5098383;28;20199;-60
2022/05/17 00:46:59;;;;;;;5.25;4.75;;;;;;;;;;5097448;28;20284;-60
2022/05/17 00:49:28;;;;;;;5.45;4.63;;;;;;;;;;5115868;28;20203;-60
2022/05/17 00:51:58;;;;;;;5.70;5.20;;;;;;;;;;5118047;28;20234;-60
2022/05/17 00:54:26;;;;;;;4.78;4.22;;;;;;;;;;5117221;28;20202;-60
2022/05/17 00:56:57;;;;;;;5.40;4.70;;;;;;;;;;5117958;28;20542;-60
2022/05/17 00:59:25;;;;;;;5.40;5.00;;;;;;;;;;5118220;28;20667;-60
2022/05/17 01:01:53;;;;;;;5.10;4.70;;;;;;;;;;5118480;28;20210;-59
2022/05/17 01:04:21;;;;;;;5.55;5.07;;;;;;;;;;5117897;28;20213;-60
2022/05/17 01:06:50;;;;;;;5.22;4.82;;;;;;;;;;5118146;28;20237;-59
2022/05/17 01:09:20;;;;;;;4.55;4.15;;;;;;;;;;5118012;28;20209;-59
2022/05/17 01:11:47;;;;;;;5.35;4.85;;;;;;;;;;5117962;28;20222;-60
2022/05/17 01:16:59;;;;;;;4.43;4.03;;;;;;;;;;5097345;28;20264;-60
2022/05/17 01:19:27;;;;;;;5.03;4.55;;;;;;;;;;5097090;28;20214;-60
2022/05/17 01:21:56;;;;;;;4.57;4.07;;;;;;;;;;5097516;28;20206;-60
2022/05/17 01:24:24;;;;;;;4.80;4.32;;;;;;;;;;5097660;28;20203;-60
2022/05/17 01:26:55;;;;;;;4.53;4.00;;;;;;;;;;5097357;28;20204;-60
2022/05/17 01:29:22;;;;;;;4.47;4.07;;;;;;;;;;5097451;28;20203;-60
2022/05/17 01:31:51;;;;;;;4.93;4.53;;;;;;;;;;5097030;28;20330;-61
2022/05/17 01:34:18;;;;;;;5.32;4.82;;;;;;;;;;5097371;28;20204;-60
2022/05/17 01:36:47;;;;;;;4.38;3.97;;;;;;;;;;5097195;28;20204;-60
2022/05/17 01:39:15;;;;;;;5.22;4.50;;;;;;;;;;5097450;28;20204;-60
2022/05/17 01:41:43;;;;;;;5.35;4.70;;;;;;;;;;5098231;28;20210;-60
2022/05/17 01:44:11;;;;;;;5.93;5.43;;;;;;;;;;5101219;28;20266;-60
2022/05/17 01:46:38;;;;;;;4.90;4.43;;;;;;;;;;5100730;28;20215;-60
2022/05/17 01:49:07;;;;;;;5.57;5.00;;;;;;;;;;5101105;28;20214;-60
2022/05/17 01:51:34;;;;;;;5.13;4.72;;;;;;;;;;5101087;28;20204;-60
2022/05/17 01:54:02;;;;;;;4.95;4.55;;;;;;;;;;5100803;28;20246;-60
2022/05/17 01:56:33;;;;;;;4.70;4.22;;;;;;;;;;5101407;28;20218;-60
2022/05/17 01:59:00;;;;;;;4.35;3.95;;;;;;;;;;5101508;28;20558;-60
2022/05/17 02:01:28;;;;;;;4.40;4.00;;;;;;;;;;5100776;28;20226;-60
2022/05/17 02:03:55;;;;;;;4.90;4.40;;;;;;;;;;5100866;28;20199;-59
2022/05/17 02:06:23;;;;;;;5.90;5.30;;;;;;;;;;5100102;28;20207;-60
2022/05/17 02:08:51;;;;;;;5.00;4.60;;;;;;;;;;5101085;28;20210;-60
2022/05/17 02:11:18;;;;;;;5.18;4.70;;;;;;;;;;5100632;28;20203;-60
2022/05/17 02:13:47;;;;;;;4.57;4.20;;;;;;;;;;5100404;28;20239;-60
2022/05/17 02:16:14;;;;;;;5.32;4.88;;;;;;;;;;5100382;28;20200;-60
2022/05/17 02:18:42;;;;;;;5.43;4.95;;;;;;;;;;5100614;28;20210;-60
2022/05/17 02:21:10;;;;;;;5.30;4.68;;;;;;;;;;5100668;28;20215;-60
2022/05/17 02:23:37;;;;;;;5.55;5.00;;;;;;;;;;5100309;28;20466;-59
2022/05/17 02:26:04;;;;;;;4.30;4.00;;;;;;;;;;5100407;28;20203;-60
2022/05/17 02:28:32;;;;;;;4.38;3.97;;;;;;;;;;5100123;28;20202;-60
2022/05/17 02:31:00;;;;;;;5.07;4.68;;;;;;;;;;5100024;28;20231;-60
2022/05/17 02:33:28;;;;;;;5.15;4.65;;;;;;;;;;5100159;28;20228;-60
2022/05/17 02:35:55;;;;;;;4.78;4.22;;;;;;;;;;5100427;28;20203;-60
2022/05/17 02:38:22;;;;;;;5.75;5.22;;;;;;;;;;5099996;28;20508;-60
2022/05/17 02:40:50;;;;;;;4.68;4.30;;;;;;;;;;5100512;28;20204;-60
2022/05/17 02:43:17;;;;;;;5.03;4.57;;;;;;;;;;5099342;28;20223;-62
2022/05/17 02:45:45;;;;;;;5.53;4.45;;;;;;;;;;5099595;28;20199;-62
2022/05/17 02:48:14;;;;;;;4.38;4.05;;;;;;;;;;5099503;28;20254;-60
2022/05/17 02:50:41;;;;;;;4.47;4.18;;;;;;;;;;5099872;28;20255;-61
2022/05/17 02:53:08;;;;;;;5.10;4.60;;;;;;;;;;5098999;28;20622;-60
2022/05/17 02:55:36;;;;;;;6.03;5.53;;;;;;;;;;5099981;28;20207;-61
2022/05/17 02:58:03;;;;;;;4.90;4.50;;;;;;;;;;5099968;28;20212;-60
2022/05/17 03:00:32;;;;;;;4.65;4.22;;;;;;;;;;5099302;28;20309;-60
2022/05/17 03:02:59;;;;;;;4.30;4.00;;;;;;;;;;5099662;28;20202;-60
2022/05/17 03:05:28;;;;;;;4.70;4.40;;;;;;;;;;5099712;28;20210;-60
2022/05/17 03:07:55;;;;;;;4.50;4.10;;;;;;;;;;5099298;28;20203;-60
2022/05/17 03:10:23;;;;;;;5.47;4.93;;;;;;;;;;5099332;28;20203;-60
2022/05/17 03:12:50;;;;;;;5.28;4.70;;;;;;;;;;5099407;28;20223;-60
2022/05/17 03:15:20;;;;;;;4.28;3.92;;;;;;;;;;5099431;28;20204;-60
2022/05/17 03:17:48;;;;;;;5.53;5.00;;;;;;;;;;5099214;28;20239;-60
2022/05/17 03:20:15;;;;;;;5.13;4.72;;;;;;;;;;5099245;28;20567;-59
2022/05/17 03:22:44;;;;;;;4.60;4.20;;;;;;;;;;5099327;28;20619;-60
2022/05/17 03:25:11;;;;;;;4.53;4.18;;;;;;;;;;5098877;28;20210;-59
2022/05/17 03:27:39;;;;;;;5.35;4.85;;;;;;;;;;5098485;28;20200;-60
2022/05/17 03:30:07;;;;;;;4.78;3.78;;;;;;;;;;5098664;28;20204;-60
2022/05/17 03:32:34;;;;;;;3.55;3.25;;;;;;;;;;5098709;28;20231;-60
2022/05/17 03:35:02;;;;;;;4.53;4.13;;;;;;;;;;5098595;28;20210;-62
2022/05/17 03:37:29;;;;;;;3.90;3.60;;;;;;;;;;5098442;28;20203;-60
2022/05/17 03:39:58;;;;;;;4.13;3.80;;;;;;;;;;5098922;28;20204;-60
2022/05/17 03:42:25;;;;;;;4.68;4.25;;;;;;;;;;5097989;28;20227;-59
2022/05/17 03:44:53;;;;;;;4.72;3.65;;;;;;;;;;5098192;28;20250;-60
2022/05/17 03:47:20;;;;;;;3.60;3.30;;;;;;;;;;5098726;28;20502;-62
2022/05/17 03:49:47;;;;;;;3.95;3.20;;;;;;;;;;5098110;28;20516;-60
2022/05/17 03:52:15;;;;;;;3.70;3.40;;;;;;;;;;5098170;28;20203;-60
2022/05/17 03:54:43;;;;;;;4.05;3.67;;;;;;;;;;5098165;28;20603;-60
2022/05/17 03:57:12;;;;;;;4.28;3.50;;;;;;;;;;5098330;28;20206;-60
2022/05/17 03:59:39;;;;;;;3.90;3.60;;;;;;;;;;5117746;28;20230;-60
2022/05/17 04:02:06;;;;;;;5.47;3.95;;;;;;;;;;5118332;28;20207;-60
2022/05/17 04:04:34;;;;;;;3.78;3.45;;;;;;;;;;5117398;28;20225;-60
2022/05/17 04:07:01;;;;;;;5.50;4.90;;;;;;;;;;5118403;28;20465;-60
2022/05/17 04:09:28;;;;;;;5.35;4.85;;;;;;;;;;5117686;28;20211;-60
2022/05/17 04:11:56;;;;;;;4.13;3.72;;;;;;;;;;5117623;28;20612;-60
2022/05/17 04:14:25;;;;;;;5.03;4.63;;;;;;;;;;5118335;28;20238;-60
2022/05/17 04:16:53;;;;;;;4.38;4.03;;;;;;;;;;5117602;28;20542;-60
2022/05/17 04:19:20;;;;;;;4.60;4.20;;;;;;;;;;5117798;28;20221;-60
2022/05/17 04:21:48;;;;;;;4.38;3.97;;;;;;;;;;5112094;28;20200;-60
2022/05/17 04:24:16;;;;;;;4.30;3.75;;;;;;;;;;5079801;28;20265;-60
2022/05/17 04:26:43;;;;;;;6.32;5.22;;;;;;;;;;5097774;28;20203;-60
2022/05/17 04:29:11;;;;;;;5.20;4.60;;;;;;;;;;5096900;28;20473;-60
2022/05/17 04:31:39;;;;;;;6.07;5.38;;;;;;;;;;5097361;28;20246;-60
2022/05/17 04:34:07;;;;;;;5.30;4.10;;;;;;;;;;5096880;28;20238;-60
2022/05/17 04:36:34;;;;;;;4.43;4.03;;;;;;;;;;5096504;28;20313;-60
2022/05/17 04:39:02;;;;;;;5.15;4.10;;;;;;;;;;5096531;28;20199;-60
2022/05/17 04:41:29;;;;;;;5.10;4.30;;;;;;;;;;5095114;28;20205;-60
2022/05/17 04:43:57;;;;;;;4.18;3.80;;;;;;;;;;5096627;28;20238;-60
2022/05/17 04:46:24;;;;;;;4.38;3.97;;;;;;;;;;5095940;28;20218;-60
2022/05/17 04:48:53;;;;;;;3.80;3.45;;;;;;;;;;5095771;28;20268;-60
2022/05/17 04:51:21;;;;;;;4.10;3.70;;;;;;;;;;5095736;28;20196;-60
2022/05/17 04:53:48;;;;;;;5.32;4.30;;;;;;;;;;5094775;28;20231;-60
2022/05/17 04:56:15;;;;;;;5.43;4.93;;;;;;;;;;5094861;28;20214;-60
2022/05/17 04:58:43;;;;;;;5.95;5.35;;;;;;;;;;5095655;28;20210;-63
2022/05/17 05:01:10;;;;;;;5.93;4.97;;;;;;;;;;5095349;28;20203;-60
2022/05/17 05:03:38;;;;;;;5.72;5.18;;;;;;;;;;5094969;28;20192;-60
2022/05/17 05:06:07;;;;;;;5.65;4.75;;;;;;;;;;5093853;28;20199;-60
2022/05/17 05:08:34;;;;;;;4.95;4.55;;;;;;;;;;5093094;28;20204;-60
2022/05/17 05:11:02;;;;;;;4.63;4.18;;;;;;;;;;5094023;28;20200;-60
2022/05/17 05:13:29;;;;;;;6.43;5.25;;;;;;;;;;5094695;28;20231;-61
2022/05/17 05:15:57;;;;;;;6.20;5.60;;;;;;;;;;5095588;28;20195;-60
2022/05/17 05:18:24;;;;;;;5.45;4.95;;;;;;;;;;5099354;28;20200;-60
2022/05/17 05:20:52;;;;;;;5.53;5.03;;;;;;;;;;5118645;28;20198;-60
2022/05/17 05:23:21;;;;;;;6.07;5.05;;;;;;;;;;5118745;28;20199;-60
2022/05/17 05:25:48;;;;;;;5.45;4.43;;;;;;;;;;5119058;28;20217;-60
2022/05/17 05:28:15;;;;;;;4.80;4.30;;;;;;;;;;5118393;28;20202;-60
2022/05/17 05:30:43;;;;;;;5.22;4.72;;;;;;;;;;5118916;28;20212;-60
2022/05/17 05:33:11;;;;;;;6.22;5.63;;;;;;;;;;5118176;28;20242;-60
2022/05/17 05:35:39;;;;;;;7.10;6.50;;;;;;;;;;5118824;28;20207;-60
2022/05/17 05:38:06;;;;;;;6.05;5.55;;;;;;;;;;5117826;28;20210;-60
2022/05/17 05:40:35;;;;;;;7.25;6.55;;;;;;;;;;5118764;28;20207;-60
2022/05/17 05:43:03;;;;;;;9.02;7.57;;;;;;;;;;5117680;28;20242;-62
2022/05/17 05:45:31;;;;;;;7.68;6.47;;;;;;;;;;5100306;28;20199;-60
2022/05/17 05:47:59;;;;;;;7.93;6.85;;;;;;;;;;5097624;28;20204;-60
2022/05/17 05:50:27;;;;;;;7.07;6.38;;;;;;;;;;5098359;28;20204;-60
2022/05/17 05:53:00;;;;;;;9.65;7.07;;;;;;;;;;5096815;28;20199;-60
2022/05/17 05:55:28;;;;;;;7.28;6.20;;;;;;;;;;5097027;28;20203;-60
2022/05/17 05:57:57;;;;;;;8.68;7.80;;;;;;;;;;5097562;28;20200;-60
2022/05/17 06:00:24;;;;;;;8.68;7.65;;;;;;;;;;5097862;28;20232;-60
2022/05/17 06:02:52;;;;;;;7.22;6.63;;;;;;;;;;5111996;28;20249;-60
2022/05/17 06:05:20;;;;;;;9.38;8.48;;;;;;;;;;5117597;28;20299;-60
2022/05/17 06:07:47;;;;;;;14.68;8.23;;;;;;;;;;5118143;28;20604;-60
2022/05/17 06:10:15;;;;;;;8.13;7.35;;;;;;;;;;5118141;28;20249;-60
2022/05/17 06:12:43;;;;;;;8.18;6.85;;;;;;;;;;5117488;28;20199;-59
2022/05/17 06:15:12;;;;;;;8.38;7.47;;;;;;;;;;5102659;28;20206;-59
2022/05/17 06:17:40;;;;;;;7.95;7.30;;;;;;;;;;5097700;28;20578;-59
2022/05/17 06:20:08;;;;;;;6.63;5.97;;;;;;;;;;5098161;28;20196;-60
2022/05/17 06:22:36;;;;;;;6.68;6.13;;;;;;;;;;5097424;28;20239;-60
2022/05/17 06:25:03;;;;;;;6.15;5.55;;;;;;;;;;5097375;28;20214;-59
2022/05/17 06:27:30;;;;;;;6.45;5.72;;;;;;;;;;5096447;28;20215;-60
2022/05/17 06:29:58;;;;;;;7.65;6.50;;;;;;;;;;5097313;28;20488;-59
2022/05/17 06:32:26;;;;;;;5.80;5.30;;;;;;;;;;5097487;28;20199;-61
2022/05/17 06:34:54;;;;;;;5.90;5.30;;;;;;;;;;5096534;28;20326;-62
2022/05/17 06:37:21;;;;;;;7.07;6.38;;;;;;;;;;5097286;28;20225;-60
2022/05/17 06:39:49;;;;;;;5.75;5.13;;;;;;;;;;5098259;28;20207;-60
2022/05/17 06:42:16;;;;;;;5.40;4.90;;;;;;;;;;5113789;28;20243;-60
2022/05/17 06:44:43;;;;;;;6.95;6.20;;;;;;;;;;5117911;28;20237;-60
2022/05/17 06:47:11;;;;;;;5.65;5.15;;;;;;;;;;5117698;28;20582;-60
2022/05/17 06:49:40;;;;;;;6.50;5.15;;;;;;;;;;5117742;28;20210;-60
2022/05/17 06:52:09;;;;;;;6.32;5.43;;;;;;;;;;5117153;28;20293;-59
2022/05/17 06:54:36;;;;;;;6.45;4.80;;;;;;;;;;5117464;28;20230;-59
2022/05/17 06:57:04;;;;;;;6.03;5.25;;;;;;;;;;5108984;28;20195;-60
2022/05/17 06:59:31;;;;;;;7.55;5.55;;;;;;;;;;5097316;28;20669;-61
2022/05/17 07:01:59;;;;;;;6.80;4.82;;;;;;;;;;5096950;28;20199;-59
2022/05/17 07:04:27;;;;;;;5.20;4.70;;;;;;;;;;5097124;28;20239;-59
2022/05/17 07:06:57;;;;;;;5.80;4.50;;;;;;;;;;5096445;28;20471;-59
2022/05/17 07:09:25;;;;;;;5.70;4.50;;;;;;;;;;5096897;28;20203;-59
2022/05/17 07:14:38;;;;;;;5.90;4.25;;;;;;;;;;5096812;28;20814;-59
2022/05/17 07:17:05;;;;;;;4.90;4.47;;;;;;;;;;5097206;28;20264;-60
2022/05/17 07:19:33;;;;;;;5.00;4.50;;;;;;;;;;5096762;28;20199;-59
2022/05/17 07:22:02;;;;;;;4.50;4.05;;;;;;;;;;5096072;28;20215;-61
2022/05/17 07:24:30;;;;;;;5.07;4.57;;;;;;;;;;5096775;28;20602;-59
2022/05/17 07:26:58;;;;;;;4.53;4.13;;;;;;;;;;5096746;28;20269;-59
2022/05/17 07:29:25;;;;;;;5.03;4.53;;;;;;;;;;5096407;28;20550;-59
2022/05/17 07:31:53;;;;;;;4.20;3.83;;;;;;;;;;5096885;28;20199;-59
2022/05/17 07:34:21;;;;;;;4.22;3.83;;;;;;;;;;5096496;28;20223;-59
2022/05/17 07:36:49;;;;;;;3.92;3.63;;;;;;;;;;5109066;28;20210;-59
2022/05/17 07:39:18;;;;;;;4.22;3.83;;;;;;;;;;5116712;28;20293;-59
2022/05/17 07:41:45;;;;;;;4.22;3.92;;;;;;;;;;5116971;28;20206;-61
2022/05/17 07:44:13;;;;;;;4.85;4.35;;;;;;;;;;5116969;28;20262;-59
2022/05/17 07:46:40;;;;;;;4.07;3.67;;;;;;;;;;5116489;28;20213;-59
2022/05/17 07:49:07;;;;;;;4.45;3.72;;;;;;;;;;5116662;28;20199;-59
2022/05/17 07:51:35;;;;;;;4.03;3.65;;;;;;;;;;5111469;28;20203;-59
2022/05/17 07:54:02;;;;;;;4.05;3.65;;;;;;;;;;5095418;28;20215;-60
2022/05/17 07:56:31;;;;;;;4.25;3.80;;;;;;;;;;5095784;28;20203;-59
2022/05/17 07:58:58;;;;;;;4.38;3.88;;;;;;;;;;5095407;28;20200;-59
2022/05/17 08:01:26;;;;;;;4.10;3.72;;;;;;;;;;5095472;28;20215;-59
2022/05/17 08:03:53;;;;;;;5.80;4.22;;;;;;;;;;5094880;28;20203;-59
2022/05/17 08:06:21;;;;;;;4.07;3.78;;;;;;;;;;5096425;28;20208;-60
2022/05/17 08:08:48;;;;;;;4.07;3.65;;;;;;;;;;5096090;28;20203;-59
2022/05/17 08:11:15;;;;;;;4.05;3.60;;;;;;;;;;5096234;28;20213;-60
2022/05/17 08:13:44;;;;;;;3.97;3.67;;;;;;;;;;5096303;28;20620;-60
2022/05/17 08:16:11;;;;;;;4.95;4.53;;;;;;;;;;5095240;28;20306;-60
2022/05/17 08:18:39;;;;;;;4.93;4.05;;;;;;;;;;5095306;28;20210;-59
2022/05/17 08:21:07;;;;;;;6.50;5.30;;;;;;;;;;5094787;28;20234;-59
2022/05/17 08:23:35;;;;;;;4.90;4.32;;;;;;;;;;5096091;28;20218;-59
2022/05/17 08:28:48;;;;;;;4.72;4.32;;;;;;;;;;5095489;28;20191;-59
2022/05/17 08:31:17;;;;;;;4.75;4.35;;;;;;;;;;5095446;28;20707;-59
2022/05/17 08:33:45;;;;;;;4.07;3.70;;;;;;;;;;5094969;28;20204;-59
2022/05/17 08:36:13;;;;;;;4.25;3.85;;;;;;;;;;5094446;28;20532;-59
2022/05/17 08:38:41;;;;;;;6.53;5.28;;;;;;;;;;5095503;28;20203;-59
2022/05/17 08:41:12;;;;;;;5.38;4.88;;;;;;;;;;5115442;28;20732;-59
2022/05/17 08:43:45;;;;;;;4.50;4.10;;;;;;;;;;5115108;28;20230;-60
2022/05/17 08:46:19;;;;;;;3.97;3.67;;;;;;;;;;5113203;28;20210;-59
2022/05/17 08:48:50;;;;;;;4.05;3.63;;;;;;;;;;5095134;28;20268;-59
2022/05/17 08:51:19;;;;;;;4.47;3.88;;;;;;;;;;5094724;28;20204;-59
2022/05/17 08:53:48;;;;;;;4.38;3.97;;;;;;;;;;5094179;28;20196;-59
2022/05/17 08:56:17;;;;;;;5.05;4.57;;;;;;;;;;5094695;28;20208;-59
2022/05/17 08:58:46;;;;;;;4.60;4.20;;;;;;;;;;5094310;28;20216;-59
2022/05/17 09:01:20;;;;;;;3.80;3.50;;;;;;;;;;5094643;28;20203;-59
2022/05/17 09:03:51;;;;;;;5.80;3.72;;;;;;;;;;5094702;28;20203;-59
2022/05/17 09:06:21;;;;;;;3.70;3.35;;;;;;;;;;5095661;28;20487;-59
2022/05/17 09:08:52;;;;;;;3.83;3.42;;;;;;;;;;5094456;28;20622;-59
2022/05/17 09:11:21;;;;;;;4.25;3.70;;;;;;;;;;5094330;28;20204;-59
2022/05/17 09:13:52;;;;;;;3.83;3.45;;;;;;;;;;5094385;28;20686;-60
2022/05/17 09:16:21;;;;;;;4.15;3.55;;;;;;;;;;5094554;28;20196;-59
2022/05/17 09:18:49;;;;;;;4.20;3.80;;;;;;;;;;5094505;28;20276;-59
2022/05/17 09:21:27;;;;;;;3.80;3.40;;;;;;;;;;5094748;28;20745;-59
2022/05/17 09:23:55;;;;;;;4.47;4.10;;;;;;;;;;5095350;28;20544;-59
2022/05/17 09:26:22;;;;;;;4.22;3.25;;;;;;;;;;5094257;28;20200;-62
2022/05/17 09:28:52;;;;;;;4.45;3.58;;;;;;;;;;5106684;28;20612;-60
2022/05/17 09:31:28;;;;;;;3.38;3.10;;;;;;;;;;5115279;28;20203;-59
2022/05/17 09:33:57;;;;;;;3.72;3.30;;;;;;;;;;5114281;28;20194;-59
2022/05/17 09:36:27;;;;;;;3.72;3.40;;;;;;;;;;5114034;28;20199;-59
2022/05/17 09:38:55;;;;;;;3.38;3.08;;;;;;;;;;5113932;28;20517;-59
2022/05/17 09:41:25;;;;;;;3.85;3.13;;;;;;;;;;5095623;28;20203;-59
2022/05/17 09:43:55;;;;;;;3.67;3.30;;;;;;;;;;5093652;28;20741;-59
2022/05/17 09:46:31;;;;;;;3.60;3.30;;;;;;;;;;5094361;28;20204;-59
2022/05/17 09:54:43;;;;;;;4.10;3.65;;;;;;;;;;5094266;28;20269;-59
2022/05/17 09:57:14;;;;;;;3.72;3.42;;;;;;;;;;5093926;28;20465;-59
2022/05/17 09:59:42;;;;;;;4.72;3.85;;;;;;;;;;5092285;28;20195;-59
2022/05/17 10:02:30;;;;;;;4.22;3.60;;;;;;;;;;5093186;28;20204;-59
2022/05/17 10:04:57;;;;;;;4.07;3.28;;;;;;;;;;5096975;28;20199;-59
2022/05/17 10:07:29;;;;;;;3.70;3.33;;;;;;;;;;5096932;28;20492;-59
2022/05/17 10:09:57;;;;;;;4.18;3.78;;;;;;;;;;5096272;28;20207;-59
2022/05/17 10:12:30;;;;;;;4.18;3.78;;;;;;;;;;5096634;28;20298;-59
2022/05/17 10:15:00;;;;;;;4.47;3.67;;;;;;;;;;5097255;28;20746;-59
2022/05/17 10:17:32;;;;;;;3.78;3.45;;;;;;;;;;5096841;28;20214;-59
2022/05/17 10:20:01;;;;;;;3.92;3.60;;;;;;;;;;5117089;28;20484;-59
2022/05/17 10:22:31;;;;;;;4.15;3.70;;;;;;;;;;5116858;28;20209;-59
2022/05/17 10:25:01;;;;;;;4.47;3.38;;;;;;;;;;5116588;28;20209;-59
2022/05/17 10:27:31;;;;;;;3.92;3.38;;;;;;;;;;5116477;28;20217;-61
2022/05/17 10:30:02;;;;;;;4.07;3.60;;;;;;;;;;5116215;28;20734;-59
2022/05/17 10:32:32;;;;;;;3.55;2.97;;;;;;;;;;5115646;28;20195;-59
2022/05/17 10:35:01;;;;;;;3.58;3.20;;;;;;;;;;5116541;28;20225;-59
2022/05/17 10:37:31;;;;;;;5.78;3.47;;;;;;;;;;5115733;28;20224;-59
2022/05/17 10:40:01;;;;;;;4.55;3.47;;;;;;;;;;5116395;28;20297;-59
2022/05/17 10:42:29;;;;;;;3.80;3.50;;;;;;;;;;5116771;28;20715;-59
2022/05/17 10:44:58;;;;;;;3.58;3.28;;;;;;;;;;5116613;28;20234;-59
2022/05/17 10:47:40;;;;;;;3.97;3.10;;;;;;;;;;5116812;28;20789;-59
2022/05/17 10:50:13;;;;;;;3.92;3.50;;;;;;;;;;5117476;28;20214;-60
2022/05/17 10:52:47;;;;;;;3.13;2.83;;;;;;;;;;5116718;28;20264;-59
2022/05/17 10:55:19;;;;;;;3.75;3.00;;;;;;;;;;5116713;28;20222;-59
2022/05/17 10:57:52;;;;;;;3.50;3.08;;;;;;;;;;5116668;28;20213;-59
2022/05/17 11:00:23;;;;;;;3.10;2.80;;;;;;;;;;5117025;28;20226;-59
2022/05/17 11:03:01;;;;;;;4.55;3.63;;;;;;;;;;5117263;28;20267;-59
2022/05/17 11:05:34;;;;;;;3.65;3.20;;;;;;;;;;5116675;28;20203;-59
2022/05/17 11:08:06;;;;;;;3.42;3.03;;;;;;;;;;5115808;28;20463;-59
2022/05/17 11:10:39;;;;;;;3.17;2.85;;;;;;;;;;5116275;28;20203;-59
2022/05/17 11:13:13;;;;;;;3.40;3.10;;;;;;;;;;5116185;28;20593;-60
2022/05/17 11:15:41;;;;;;;3.28;2.97;;;;;;;;;;5116582;28;20283;-59
2022/05/17 11:18:13;;;;;;;5.35;3.60;;;;;;;;;;5116926;28;20313;-59
2022/05/17 11:20:45;;;;;;;3.30;3.00;;;;;;;;;;5116139;28;20195;-59
2022/05/17 11:23:24;;;;;;;4.55;3.60;;;;;;;;;;5116029;28;20198;-59
2022/05/17 11:26:03;;;;;;;2.92;2.72;;;;;;;;;;5115596;28;20225;-59
2022/05/17 11:28:38;;;;;;;3.03;2.75;;;;;;;;;;5115486;28;20281;-59
2022/05/17 11:31:08;;;;;;;5.35;4.10;;;;;;;;;;5114742;28;20642;-59
2022/05/17 11:33:38;;;;;;;4.40;3.40;;;;;;;;;;5115122;28;20211;-59
2022/05/17 11:36:07;;;;;;;3.55;3.15;;;;;;;;;;5095339;28;20348;-59
2022/05/17 11:38:48;;;;;;;3.58;3.28;;;;;;;;;;5094982;28;20200;-59
2022/05/17 11:41:17;;;;;;;3.15;2.85;;;;;;;;;;5094339;28;20585;-59
2022/05/17 11:43:46;;;;;;;3.42;3.13;;;;;;;;;;5094648;28;20513;-59
2022/05/17 11:46:31;;;;;;;3.20;2.95;;;;;;;;;;5094646;28;20199;-59
2022/05/17 11:49:01;;;;;;;2.83;2.63;;;;;;;;;;5094334;28;20214;-59
2022/05/17 11:51:31;;;;;;;3.40;2.83;;;;;;;;;;5094705;28;20222;-59
2022/05/17 11:54:00;;;;;;;4.32;2.80;;;;;;;;;;5095006;28;20205;-59
2022/05/17 11:56:38;;;;;;;3.75;3.00;;;;;;;;;;5095039;28;20223;-60
2022/05/17 11:59:21;;;;;;;2.92;2.63;;;;;;;;;;5095421;28;20239;-59
2022/05/17 12:01:50;;;;;;;3.03;2.72;;;;;;;;;;5100465;28;20285;-59
2022/05/17 12:04:39;;;;;;;3.25;2.72;;;;;;;;;;5114554;28;20668;-59
2022/05/17 12:07:29;;;;;;;3.13;2.75;;;;;;;;;;5115610;28;20211;-60
2022/05/17 12:09:57;;;;;;;3.30;3.00;;;;;;;;;;5115110;28;20589;-59
2022/05/17 12:12:31;;;;;;;3.38;2.92;;;;;;;;;;5114881;28;20203;-59
2022/05/17 12:15:08;;;;;;;2.70;2.50;;;;;;;;;;5114670;28;20601;-59
2022/05/17 12:17:37;;;;;;;4.88;2.95;;;;;;;;;;5114605;28;20202;-59
2022/05/17 12:20:10;;;;;;;4.25;3.22;;;;;;;;;;5114942;28;20217;-59
2022/05/17 12:22:41;;;;;;;3.83;2.83;;;;;;;;;;5114511;28;20690;-59
2022/05/17 12:25:10;;;;;;;3.17;2.55;;;;;;;;;;5113776;28;20309;-60
2022/05/17 12:27:42;;;;;;;5.65;2.80;;;;;;;;;;5114196;28;20199;-59
2022/05/17 12:33:02;;;;;;;4.68;2.70;;;;;;;;;;5114065;28;20194;-61
2022/05/17 12:35:31;;;;;;;3.55;2.85;;;;;;;;;;5113094;28;20226;-59
2022/05/17 12:37:59;;;;;;;3.42;2.53;;;;;;;;;;5114453;28;20210;-60
2022/05/17 12:43:13;;;;;;;2.85;2.55;;;;;;;;;;5114190;28;20226;-59
2022/05/17 12:45:41;;;;;;;2.65;2.38;;;;;;;;;;5114576;28;20203;-59
2022/05/17 12:48:13;;;;;;;3.92;2.70;;;;;;;;;;5114196;28;20195;-59
2022/05/17 12:50:44;;;;;;;2.63;2.42;;;;;;;;;;5114069;28;20666;-59
2022/05/17 12:53:13;;;;;;;2.60;2.40;;;;;;;;;;5113551;28;20207;-60
2022/05/17 12:55:42;;;;;;;3.70;2.60;;;;;;;;;;5114125;28;20223;-59
2022/05/17 12:58:11;;;;;;;2.72;2.42;;;;;;;;;;5098426;28;20762;-60
2022/05/17 13:00:39;;;;;;;3.17;2.53;;;;;;;;;;5114479;28;20207;-60
2022/05/17 13:03:16;;;;;;;3.38;2.80;;;;;;;;;;5113755;28;20199;-59
2022/05/17 13:05:48;;;;;;;3.13;2.42;;;;;;;;;;5114153;28;20198;-59
2022/05/17 13:08:16;;;;;;;2.70;2.50;;;;;;;;;;5114252;28;20202;-60
2022/05/17 13:10:45;;;;;;;2.70;2.50;;;;;;;;;;5113137;28;20202;-59
2022/05/17 13:13:16;;;;;;;3.55;2.40;;;;;;;;;;5113398;28;20593;-59
2022/05/17 13:15:45;;;;;;;4.22;2.80;;;;;;;;;;5112556;28;20229;-59
2022/05/17 13:18:13;;;;;;;4.07;2.83;;;;;;;;;;5113734;28;20206;-60
2022/05/17 13:20:41;;;;;;;3.35;2.60;;;;;;;;;;5113502;28;20213;-59
2022/05/17 13:23:10;;;;;;;4.70;2.85;;;;;;;;;;5113817;28;20207;-59
2022/05/17 13:25:39;;;;;;;2.97;2.28;;;;;;;;;;5113126;28;20198;-59
2022/05/17 13:28:07;;;;;;;3.25;2.42;;;;;;;;;;5113591;28;20267;-59
2022/05/17 13:30:36;;;;;;;3.67;2.40;;;;;;;;;;5112794;28;20209;-59
2022/05/17 13:33:04;;;;;;;2.50;2.30;;;;;;;;;;5113417;28;20210;-59
2022/05/17 13:35:32;;;;;;;3.83;2.42;;;;;;;;;;5113363;28;20239;-59
2022/05/17 13:38:02;;;;;;;2.63;2.42;;;;;;;;;;5117256;28;20283;-59
2022/05/17 13:40:44;;;;;;;3.28;2.70;;;;;;;;;;5117382;28;20207;-60
2022/05/17 13:43:19;;;;;;;2.90;2.45;;;;;;;;;;5116502;28;20227;-59
2022/05/17 13:45:58;;;;;;;2.63;2.42;;;;;;;;;;5117127;28;20199;-59
2022/05/17 13:48:25;;;;;;;2.83;2.25;;;;;;;;;;5117538;28;20614;-60
2022/05/17 13:50:54;;;;;;;2.80;2.50;;;;;;;;;;5116789;28;20199;-59
2022/05/17 13:53:22;;;;;;;3.15;2.60;;;;;;;;;;5117201;28;20209;-59
2022/05/17 13:55:51;;;;;;;3.25;2.40;;;;;;;;;;5116456;28;20792;-59
2022/05/17 13:58:18;;;;;;;3.05;2.42;;;;;;;;;;5117478;28;20210;-59
2022/05/17 14:00:58;;;;;;;2.90;2.40;;;;;;;;;;5117040;28;20298;-59
2022/05/17 14:03:26;;;;;;;3.05;2.40;;;;;;;;;;5116941;28;20666;-59
2022/05/17 14:05:58;;;;;;;2.90;2.53;;;;;;;;;;5116724;28;20619;-59
2022/05/17 14:14:02;;;;;;;4.22;2.80;;;;;;;;;;5116100;28;20202;-59
2022/05/17 14:16:31;;;;;;;3.42;2.58;;;;;;;;;;5116043;28;20241;-59
2022/05/17 14:18:59;;;;;;;4.65;3.00;;;;;;;;;;5116126;28;20195;-62
2022/05/17 14:21:28;;;;;;;5.78;2.75;;;;;;;;;;5116384;28;20195;-61
2022/05/17 14:23:56;;;;;;;5.13;2.75;;;;;;;;;;5117143;28;20302;-61
2022/05/17 14:26:25;;;;;;;3.15;2.83;;;;;;;;;;5117450;28;20657;-61
2022/05/17 14:28:53;;;;;;;3.28;2.58;;;;;;;;;;5116705;28;20640;-61
2022/05/17 14:31:22;;;;;;;4.57;2.42;;;;;;;;;;5116652;28;20203;-61
2022/05/17 14:33:51;;;;;;;3.47;2.85;;;;;;;;;;5115879;28;20203;-61
2022/05/17 14:36:20;;;;;;;4.95;2.70;;;;;;;;;;5115533;28;20231;-61
2022/05/17 14:38:47;;;;;;;5.15;2.40;;;;;;;;;;5116231;28;20199;-60
2022/05/17 14:41:15;;;;;;;3.97;2.45;;;;;;;;;;5116508;28;20226;-61
2022/05/17 14:43:44;;;;;;;5.53;2.58;;;;;;;;;;5105722;28;20228;-61
2022/05/17 14:46:13;;;;;;;3.80;2.58;;;;;;;;;;5095180;28;20191;-61
2022/05/17 14:48:41;;;;;;;4.50;2.72;;;;;;;;;;5094288;28;20214;-60
2022/05/17 14:51:12;;;;;;;4.43;2.58;;;;;;;;;;5096036;28;20200;-61
2022/05/17 14:53:40;;;;;;;4.25;2.63;;;;;;;;;;5095460;28;20300;-61
2022/05/17 14:56:07;;;;;;;6.45;2.72;;;;;;;;;;5096325;28;20228;-60
2022/05/17 14:58:34;;;;;;;5.03;2.40;;;;;;;;;;5095452;28;20466;-61
2022/05/17 15:01:05;;;;;;;2.50;2.28;;;;;;;;;;5095289;28;20204;-61
2022/05/17 15:03:36;;;;;;;4.22;2.40;;;;;;;;;;5095950;28;20208;-61
2022/05/17 15:06:04;;;;;;;4.53;2.83;;;;;;;;;;5094943;28;20199;-61
2022/05/17 15:08:31;;;;;;;3.80;2.40;;;;;;;;;;5095129;28;20215;-61
2022/05/17 15:10:59;;;;;;;3.13;2.20;;;;;;;;;;5093418;28;20214;-61
2022/05/17 15:13:26;;;;;;;2.72;2.20;;;;;;;;;;5095167;28;20598;-61
2022/05/17 15:15:54;;;;;;;3.65;1.98;;;;;;;;;;5095377;28;20219;-61
2022/05/17 15:18:24;;;;;;;2.88;2.22;;;;;;;;;;5095938;28;20196;-60
2022/05/17 15:20:52;;;;;;;3.90;2.15;;;;;;;;;;5095304;28;20293;-60
2022/05/17 15:23:20;;;;;;;3.75;2.38;;;;;;;;;;5096012;28;20775;-60